Volgo-balt 229 — UHZF — position and weather

sailwx.info

Track history (hours):
 
Tides and Currents Weather Stations Pressure Air Temp Water Temp Dewpoint Dewpoint Depression Visibility Wind Speed Wind Dir Waves Ship Positions

Volgo-balt 229

Last reported at 2017-Sep-18 07:39 UTC. Time now 2017-Sep-26 02:19 UTC.
Position N 59°48' E 030°38'.

Length 113 m; draft 2.6 m.

Type: Ship. MMSI: 273336300.

Date/timePositionNaut miles runAvg speedWind from/ knotsBaromVisibWave heightAir tempDewpointWater temp
2017-Sep-18 07:39N 59°48' E 030°38'1 5.7
2017-Sep-18 07:24N 59°49' E 030°36'2 5.1
2017-Sep-18 07:00N 59°50' E 030°34'1 1.9
2017-Sep-18 06:27N 59°50' E 030°31'0 0.0
2017-Sep-18 05:54N 59°50' E 030°31'0 0.0
2017-Sep-18 05:30N 59°50' E 030°31'0 0.0
2017-Sep-18 02:31N 59°50' E 030°31'0 0.6
2017-Sep-18 02:29N 59°50' E 030°31'1 2.0
2017-Sep-18 02:00N 59°51' E 030°30'2 4.8
2017-Sep-18 01:30N 59°53' E 030°27'2 4.0
2017-Sep-18 01:00N 59°54' E 030°25'2 3.3
2017-Sep-18 00:30N 59°56' E 030°24'0 0.0
2017-Sep-17 23:54N 59°56' E 030°24'1 1.3
2017-Sep-17 23:31N 59°56' E 030°24'2 3.7
2017-Sep-17 23:00N 59°57' E 030°21'2 4.0
2017-Sep-17 22:29N 59°56' E 030°17'0 0.0
2017-Sep-17 21:59N 59°56' E 030°17'0 0.0
2017-Sep-17 21:29N 59°56' E 030°17'0 0.0
2017-Sep-17 20:59N 59°56' E 030°17'0 0.0
2017-Sep-17 20:29N 59°56' E 030°17'0 0.0
2017-Sep-17 19:59N 59°56' E 030°17'0 0.0
2017-Sep-17 19:29N 59°56' E 030°17'0 0.0
2017-Sep-17 18:59N 59°56' E 030°17'0 0.0
2017-Sep-17 18:29N 59°56' E 030°17'0 0.0
2017-Sep-17 17:59N 59°56' E 030°17'0 0.0
2017-Sep-17 17:29N 59°56' E 030°17'0 0.0
2017-Sep-17 16:59N 59°56' E 030°17'0 0.0
2017-Sep-17 16:29N 59°56' E 030°17'0 0.0
2017-Sep-17 15:59N 59°56' E 030°17'0 0.0
2017-Sep-17 15:29N 59°56' E 030°17'0 0.0
2017-Sep-17 14:59N 59°56' E 030°17'0 0.0
2017-Sep-17 14:29N 59°56' E 030°17'0 0.0
2017-Sep-17 14:00N 59°56' E 030°17'2 3.0
2017-Sep-17 13:30N 59°55' E 030°15'0 1.0
2017-Sep-17 13:01N 59°55' E 030°14'0 0.0
2017-Sep-17 12:30N 59°55' E 030°14'0 0.0
2017-Sep-17 12:01N 59°55' E 030°14'0 0.9
2017-Sep-17 11:30N 59°54' E 030°14'2 3.2
2017-Sep-17 11:00N 59°53' E 030°11'3 5.1
2017-Sep-17 10:31N 59°54' E 030°06'2 4.8
2017-Sep-17 10:00N 59°55' E 030°02'1 1.3
2017-Sep-17 09:30N 59°55' E 030°01'1 1.6
2017-Sep-17 09:00N 59°55' E 029°59'2 3.7
2017-Sep-17 08:30N 59°56' E 029°56'4 7.8
2017-Sep-17 08:00N 59°58' E 029°48'14 7.9
2017-Sep-17 06:10N 60°01' E 029°21'1 8.5
2017-Sep-17 06:00N 60°01' E 029°18'4 7.5
2017-Sep-17 05:27N 60°01' E 029°10'4 6.6
2017-Sep-17 04:53N 60°02' E 029°02'4 6.7
2017-Sep-17 04:19N 60°02' E 028°55'2 7.0
2017-Sep-17 04:00N 60°02' E 028°50'4 8.6
2017-Sep-17 03:30N 60°02' E 028°42'4 8.4
2017-Sep-17 03:00N 60°02' E 028°33'4 8.2
2017-Sep-17 02:30N 60°03' E 028°25'4 8.2
2017-Sep-17 02:01N 60°05' E 028°19'4 8.1
2017-Sep-17 01:31N 60°07' E 028°12'4 8.4
2017-Sep-17 01:00N 60°08' E 028°03'4 8.3
2017-Sep-17 00:31N 60°09' E 027°55'4 8.3
2017-Sep-17 00:01N 60°10' E 027°47'4 8.1
2017-Sep-16 23:30N 60°08' E 027°41'4 8.4
2017-Sep-16 23:00N 60°06' E 027°33'4 8.4
2017-Sep-16 22:30N 60°04' E 027°26'4 8.2
2017-Sep-16 22:00N 60°02' E 027°19'4 8.4
2017-Sep-16 21:30N 59°60' E 027°12'4 8.4
2017-Sep-16 21:00N 59°58' E 027°04'4 8.1
2017-Sep-16 20:30N 59°58' E 026°56'4 8.8
2017-Sep-16 20:00N 59°59' E 026°48'4 8.8
2017-Sep-16 19:30N 59°59' E 026°39'4 7.6
2017-Sep-16 19:00N 59°58' E 026°32'4 8.3
2017-Sep-16 18:30N 59°57' E 026°24'4 8.3
2017-Sep-16 18:00N 59°56' E 026°16'39 8.3
2017-Sep-16 13:17N 59°46' E 024°60'2 8.4
2017-Sep-16 13:00N 59°45' E 024°55'4 8.3
2017-Sep-16 12:30N 59°45' E 024°47'4 8.4
2017-Sep-16 12:00N 59°44' E 024°39'4 8.6
2017-Sep-16 11:30N 59°43' E 024°31'4 8.5
2017-Sep-16 11:00N 59°42' E 024°22'23 8.4
2017-Sep-16 08:16N 59°35' E 023°40'2 8.5
2017-Sep-16 07:59N 59°34' E 023°35'4 8.4
2017-Sep-16 07:30N 59°33' E 023°27'4 8.3
2017-Sep-16 07:00N 59°32' E 023°20'309 7.9
2017-Sep-14 15:58N 56°02' E 016°13'4 7.8
2017-Sep-14 15:31N 56°00' E 016°08'4 7.6
2017-Sep-14 15:01N 55°58' E 016°02'4 7.8
2017-Sep-14 14:31N 55°57' E 015°55'4 7.8
2017-Sep-14 14:01N 55°55' E 015°49'4 7.8
2017-Sep-14 13:28N 55°53' E 015°42'4 8.1
2017-Sep-14 13:01N 55°51' E 015°37'4 7.7
2017-Sep-14 12:30N 55°50' E 015°30'2 4.7
2017-Sep-14 12:01N 55°52' E 015°27'3 6.3
2017-Sep-14 11:31N 55°54' E 015°24'3 6.4
2017-Sep-14 11:00N 55°57' E 015°21'3 6.7
2017-Sep-14 10:31N 55°58' E 015°16'4 7.1
2017-Sep-14 10:01N 55°59' E 015°10'4 7.3
2017-Sep-14 09:30N 56°00' E 015°03'4 7.7
2017-Sep-14 09:01N 56°02' E 014°57'4 7.7
2017-Sep-14 08:30N 56°03' E 014°50'2 0.1
2017-Sep-13 15:58N 56°05' E 014°48'4 5.6
2017-Sep-13 15:17N 56°09' E 014°49'9 0.8
2017-Sep-13 02:59N 56°02' E 015°01'6 7.2
2017-Sep-13 02:13N 55°59' E 015°09'1 6.9
2017-Sep-13 02:01N 55°58' E 015°11'3 6.9
2017-Sep-13 01:30N 55°56' E 015°16'3 6.8
2017-Sep-13 01:01N 55°55' E 015°22'3 6.6
2017-Sep-13 00:30N 55°55' E 015°28'3 6.3
2017-Sep-13 00:01N 55°54' E 015°33'3 6.4
2017-Sep-12 23:30N 55°54' E 015°39'3 6.1
2017-Sep-12 23:01N 55°54' E 015°44'3 6.2
2017-Sep-12 22:31N 55°54' E 015°50'3 6.4
2017-Sep-12 22:01N 55°56' E 015°55'3 6.2
2017-Sep-12 21:31N 55°57' E 016°01'3 6.2
2017-Sep-12 21:01N 55°58' E 016°06'3 6.4
2017-Sep-12 20:31N 55°59' E 016°11'3 6.4
2017-Sep-12 20:01N 56°00' E 016°16'3 6.2
2017-Sep-12 19:30N 56°02' E 016°21'3 6.2
2017-Sep-12 19:01N 56°03' E 016°26'3 6.4
2017-Sep-12 18:31N 56°04' E 016°31'3 6.5
2017-Sep-12 18:00N 56°06' E 016°37'299 7.0
2017-Sep-10 23:15N 59°37' E 023°13'2 7.7
2017-Sep-10 22:56N 59°38' E 023°18'3 7.4
2017-Sep-10 22:29N 59°38' E 023°24'3 7.1
2017-Sep-10 22:00N 59°39' E 023°31'8 7.3
2017-Sep-10 20:56N 59°41' E 023°46'17 7.8
2017-Sep-10 18:45N 59°46' E 024°18'2 7.8
2017-Sep-10 18:30N 59°46' E 024°22'4 7.6
2017-Sep-10 18:00N 59°47' E 024°29'4 7.6
2017-Sep-10 17:30N 59°48' E 024°36'4 7.8
2017-Sep-10 17:00N 59°49' E 024°44'4 7.9
2017-Sep-10 16:30N 59°50' E 024°52'4 8.0
2017-Sep-10 16:00N 59°51' E 024°60'37 8.0
2017-Sep-10 11:22N 59°59' E 026°12'3 7.7
2017-Sep-10 11:00N 59°60' E 026°17'4 7.4
2017-Sep-10 10:30N 60°00' E 026°25'4 7.3
2017-Sep-10 10:00N 60°01' E 026°32'4 7.5
2017-Sep-10 09:30N 60°01' E 026°39'4 7.6
2017-Sep-10 09:00N 60°01' E 026°47'4 7.7
2017-Sep-10 08:30N 60°00' E 026°54'4 7.5
2017-Sep-10 08:00N 59°59' E 027°02'3 6.9
2017-Sep-10 07:30N 60°01' E 027°08'4 7.0
2017-Sep-10 07:00N 60°03' E 027°14'4 7.0
2017-Sep-10 06:30N 60°05' E 027°20'3 6.9
2017-Sep-10 06:00N 60°07' E 027°26'4 7.1
2017-Sep-10 05:30N 60°08' E 027°32'4 7.3
2017-Sep-10 05:00N 60°10' E 027°38'4 7.3
2017-Sep-10 04:30N 60°12' E 027°45'4 7.6
2017-Sep-10 04:00N 60°12' E 027°52'4 8.1
2017-Sep-10 03:30N 60°10' E 027°60'4 7.9
2017-Sep-10 03:00N 60°09' E 028°08'4 8.1
2017-Sep-10 02:30N 60°08' E 028°15'4 7.9
2017-Sep-10 02:00N 60°06' E 028°22'4 7.9
2017-Sep-10 01:30N 60°04' E 028°29'4 7.7
2017-Sep-10 01:01N 60°03' E 028°36'4 8.0
2017-Sep-10 00:30N 60°03' E 028°44'4 8.1
2017-Sep-10 00:00N 60°03' E 028°53'4 8.0
2017-Sep-09 23:30N 60°03' E 029°00'5 7.9
2017-Sep-09 22:56N 60°02' E 029°09'5 8.1
2017-Sep-09 22:22N 60°02' E 029°19'11 7.7
2017-Sep-09 20:59N 59°60' E 029°40'4 8.0
2017-Sep-09 20:28N 59°58' E 029°47'4 8.0
2017-Sep-09 20:00N 59°57' E 029°54'4 7.7
2017-Sep-09 19:31N 59°55' E 030°01'4 7.5
2017-Sep-09 19:01N 59°54' E 030°08'3 5.4
2017-Sep-09 18:31N 59°54' E 030°13'1 1.4
2017-Sep-09 18:00N 59°55' E 030°14'0 0.1
2017-Sep-09 17:30N 59°55' E 030°14'0 0.0
2017-Sep-09 17:00N 59°55' E 030°14'0 0.0
2017-Sep-09 16:31N 59°55' E 030°14'0 0.0
2017-Sep-09 16:01N 59°55' E 030°14'0 0.0
2017-Sep-09 15:30N 59°55' E 030°14'0 0.0
2017-Sep-09 15:00N 59°55' E 030°14'0 0.0
2017-Sep-09 14:30N 59°55' E 030°14'0 0.0
2017-Sep-09 14:00N 59°55' E 030°14'0 0.0
2017-Sep-09 13:30N 59°55' E 030°14'0 0.0
2017-Sep-09 13:01N 59°55' E 030°14'0 0.0
2017-Sep-09 12:30N 59°55' E 030°14'0 0.0
2017-Sep-09 12:00N 59°55' E 030°14'0 0.0
2017-Sep-09 11:30N 59°55' E 030°14'0 0.0
2017-Sep-09 11:00N 59°55' E 030°14'0 0.0
2017-Sep-09 10:30N 59°55' E 030°14'0 0.0
2017-Sep-09 10:00N 59°55' E 030°14'0 0.0
2017-Sep-09 09:30N 59°55' E 030°14'0 0.0
2017-Sep-09 09:00N 59°55' E 030°14'0 0.0
2017-Sep-09 08:30N 59°55' E 030°14'0 0.0
2017-Sep-09 08:00N 59°55' E 030°14'0 0.0
2017-Sep-09 07:30N 59°55' E 030°14'0 0.0
2017-Sep-09 07:00N 59°55' E 030°14'0 0.0
2017-Sep-09 06:30N 59°55' E 030°14'0 0.0
2017-Sep-09 06:00N 59°55' E 030°14'0 0.0
2017-Sep-09 05:30N 59°55' E 030°14'0 0.0
2017-Sep-09 05:00N 59°55' E 030°14'0 0.0
2017-Sep-09 04:30N 59°55' E 030°14'0 0.0
2017-Sep-09 04:00N 59°55' E 030°14'0 0.0
2017-Sep-09 03:30N 59°55' E 030°14'0 0.0
2017-Sep-09 03:00N 59°55' E 030°14'0 0.0
2017-Sep-09 02:30N 59°55' E 030°14'0 0.0
2017-Sep-09 02:00N 59°55' E 030°14'0 0.1
2017-Sep-09 01:30N 59°55' E 030°14'2 3.3
2017-Sep-09 01:00N 59°56' E 030°16'4 8.1
2017-Sep-09 00:31N 59°57' E 030°24'4 8.6
2017-Sep-09 00:00N 59°53' E 030°27'4 5.7
2017-Sep-08 23:20N 59°50' E 030°31'0 0.0
2017-Sep-08 22:56N 59°50' E 030°31'0 0.0
2017-Sep-08 22:14N 59°50' E 030°31'0 0.0
2017-Sep-08 21:56N 59°50' E 030°31'0 0.0
2017-Sep-08 21:17N 59°50' E 030°31'0 0.0
2017-Sep-08 20:59N 59°50' E 030°31'0 0.0
2017-Sep-08 20:20N 59°50' E 030°31'0 0.0
2017-Sep-08 19:59N 59°50' E 030°31'0 0.0
2017-Sep-08 19:20N 59°50' E 030°31'0 0.0
2017-Sep-08 18:53N 59°50' E 030°31'0 0.0
2017-Sep-08 18:29N 59°50' E 030°31'0 0.0
2017-Sep-08 17:59N 59°50' E 030°31'0 0.0
2017-Sep-08 17:26N 59°50' E 030°31'0 0.0
2017-Sep-08 16:56N 59°50' E 030°31'0 0.0
2017-Sep-08 16:29N 59°50' E 030°31'0 0.0
2017-Sep-08 15:56N 59°50' E 030°31'0 0.0
2017-Sep-08 15:26N 59°50' E 030°31'0 0.0
2017-Sep-08 14:56N 59°50' E 030°31'0 0.0
2017-Sep-08 14:26N 59°50' E 030°31'0 0.0
2017-Sep-08 13:59N 59°50' E 030°31'0 0.0
2017-Sep-08 13:20N 59°50' E 030°31'0 0.0
2017-Sep-08 12:56N 59°50' E 030°31'0 0.0
2017-Sep-08 11:32N 59°50' E 030°31'0 0.0
2017-Sep-08 11:26N 59°50' E 030°31'0 0.0
2017-Sep-08 10:56N 59°50' E 030°31'0 0.0
2017-Sep-08 10:26N 59°50' E 030°31'0 0.0
2017-Sep-08 09:44N 59°50' E 030°31'0 0.0
2017-Sep-08 09:26N 59°50' E 030°31'0 0.0
2017-Sep-08 08:02N 59°50' E 030°31'0 0.0
2017-Sep-08 07:56N 59°50' E 030°31'  
Track history (hours):
 
Tides and Currents Weather Stations Pressure Air Temp Water Temp Dewpoint Dewpoint Depression Visibility Wind Speed Wind Dir Waves Ship Positions

Volgo-balt 229

Last reported at 2017-Sep-18 07:39 UTC. Time now 2017-Sep-26 02:19 UTC.
Position N 59°48' E 030°38'.

Length 113 m; draft 2.6 m.

Type: Ship. MMSI: 273336300.

Date/timePositionNaut miles runAvg speedWind from/ knotsBaromVisibWave heightAir tempDewpointWater temp
2017-Sep-18 07:39N 59°48' E 030°38'1 5.7
2017-Sep-18 07:24N 59°49' E 030°36'2 5.1
2017-Sep-18 07:00N 59°50' E 030°34'1 1.9
2017-Sep-18 06:27N 59°50' E 030°31'0 0.0
2017-Sep-18 05:54N 59°50' E 030°31'0 0.0
2017-Sep-18 05:30N 59°50' E 030°31'0 0.0
2017-Sep-18 02:31N 59°50' E 030°31'0 0.6
2017-Sep-18 02:29N 59°50' E 030°31'1 2.0
2017-Sep-18 02:00N 59°51' E 030°30'2 4.8
2017-Sep-18 01:30N 59°53' E 030°27'2 4.0
2017-Sep-18 01:00N 59°54' E 030°25'2 3.3
2017-Sep-18 00:30N 59°56' E 030°24'0 0.0
2017-Sep-17 23:54N 59°56' E 030°24'1 1.3
2017-Sep-17 23:31N 59°56' E 030°24'2 3.7
2017-Sep-17 23:00N 59°57' E 030°21'2 4.0
2017-Sep-17 22:29N 59°56' E 030°17'0 0.0
2017-Sep-17 21:59N 59°56' E 030°17'0 0.0
2017-Sep-17 21:29N 59°56' E 030°17'0 0.0
2017-Sep-17 20:59N 59°56' E 030°17'0 0.0
2017-Sep-17 20:29N 59°56' E 030°17'0 0.0
2017-Sep-17 19:59N 59°56' E 030°17'0 0.0
2017-Sep-17 19:29N 59°56' E 030°17'0 0.0
2017-Sep-17 18:59N 59°56' E 030°17'0 0.0
2017-Sep-17 18:29N 59°56' E 030°17'0 0.0
2017-Sep-17 17:59N 59°56' E 030°17'0 0.0
2017-Sep-17 17:29N 59°56' E 030°17'0 0.0
2017-Sep-17 16:59N 59°56' E 030°17'0 0.0
2017-Sep-17 16:29N 59°56' E 030°17'0 0.0
2017-Sep-17 15:59N 59°56' E 030°17'0 0.0
2017-Sep-17 15:29N 59°56' E 030°17'0 0.0
2017-Sep-17 14:59N 59°56' E 030°17'0 0.0
2017-Sep-17 14:29N 59°56' E 030°17'0 0.0
2017-Sep-17 14:00N 59°56' E 030°17'2 3.0
2017-Sep-17 13:30N 59°55' E 030°15'0 1.0
2017-Sep-17 13:01N 59°55' E 030°14'0 0.0
2017-Sep-17 12:30N 59°55' E 030°14'0 0.0
2017-Sep-17 12:01N 59°55' E 030°14'0 0.9
2017-Sep-17 11:30N 59°54' E 030°14'2 3.2
2017-Sep-17 11:00N 59°53' E 030°11'3 5.1
2017-Sep-17 10:31N 59°54' E 030°06'2 4.8
2017-Sep-17 10:00N 59°55' E 030°02'1 1.3
2017-Sep-17 09:30N 59°55' E 030°01'1 1.6
2017-Sep-17 09:00N 59°55' E 029°59'2 3.7
2017-Sep-17 08:30N 59°56' E 029°56'4 7.8
2017-Sep-17 08:00N 59°58' E 029°48'14 7.9
2017-Sep-17 06:10N 60°01' E 029°21'1 8.5
2017-Sep-17 06:00N 60°01' E 029°18'4 7.5
2017-Sep-17 05:27N 60°01' E 029°10'4 6.6
2017-Sep-17 04:53N 60°02' E 029°02'4 6.7
2017-Sep-17 04:19N 60°02' E 028°55'2 7.0
2017-Sep-17 04:00N 60°02' E 028°50'4 8.6
2017-Sep-17 03:30N 60°02' E 028°42'4 8.4
2017-Sep-17 03:00N 60°02' E 028°33'4 8.2
2017-Sep-17 02:30N 60°03' E 028°25'4 8.2
2017-Sep-17 02:01N 60°05' E 028°19'4 8.1
2017-Sep-17 01:31N 60°07' E 028°12'4 8.4
2017-Sep-17 01:00N 60°08' E 028°03'4 8.3
2017-Sep-17 00:31N 60°09' E 027°55'4 8.3
2017-Sep-17 00:01N 60°10' E 027°47'4 8.1
2017-Sep-16 23:30N 60°08' E 027°41'4 8.4
2017-Sep-16 23:00N 60°06' E 027°33'4 8.4
2017-Sep-16 22:30N 60°04' E 027°26'4 8.2
2017-Sep-16 22:00N 60°02' E 027°19'4 8.4
2017-Sep-16 21:30N 59°60' E 027°12'4 8.4
2017-Sep-16 21:00N 59°58' E 027°04'4 8.1
2017-Sep-16 20:30N 59°58' E 026°56'4 8.8
2017-Sep-16 20:00N 59°59' E 026°48'4 8.8
2017-Sep-16 19:30N 59°59' E 026°39'4 7.6
2017-Sep-16 19:00N 59°58' E 026°32'4 8.3
2017-Sep-16 18:30N 59°57' E 026°24'4 8.3
2017-Sep-16 18:00N 59°56' E 026°16'39 8.3
2017-Sep-16 13:17N 59°46' E 024°60'2 8.4
2017-Sep-16 13:00N 59°45' E 024°55'4 8.3
2017-Sep-16 12:30N 59°45' E 024°47'4 8.4
2017-Sep-16 12:00N 59°44' E 024°39'4 8.6
2017-Sep-16 11:30N 59°43' E 024°31'4 8.5
2017-Sep-16 11:00N 59°42' E 024°22'23 8.4
2017-Sep-16 08:16N 59°35' E 023°40'2 8.5
2017-Sep-16 07:59N 59°34' E 023°35'4 8.4
2017-Sep-16 07:30N 59°33' E 023°27'4 8.3
2017-Sep-16 07:00N 59°32' E 023°20'309 7.9
2017-Sep-14 15:58N 56°02' E 016°13'4 7.8
2017-Sep-14 15:31N 56°00' E 016°08'4 7.6
2017-Sep-14 15:01N 55°58' E 016°02'4 7.8
2017-Sep-14 14:31N 55°57' E 015°55'4 7.8
2017-Sep-14 14:01N 55°55' E 015°49'4 7.8
2017-Sep-14 13:28N 55°53' E 015°42'4 8.1
2017-Sep-14 13:01N 55°51' E 015°37'4 7.7
2017-Sep-14 12:30N 55°50' E 015°30'2 4.7
2017-Sep-14 12:01N 55°52' E 015°27'3 6.3
2017-Sep-14 11:31N 55°54' E 015°24'3 6.4
2017-Sep-14 11:00N 55°57' E 015°21'3 6.7
2017-Sep-14 10:31N 55°58' E 015°16'4 7.1
2017-Sep-14 10:01N 55°59' E 015°10'4 7.3
2017-Sep-14 09:30N 56°00' E 015°03'4 7.7
2017-Sep-14 09:01N 56°02' E 014°57'4 7.7
2017-Sep-14 08:30N 56°03' E 014°50'2 0.1
2017-Sep-13 15:58N 56°05' E 014°48'4 5.6
2017-Sep-13 15:17N 56°09' E 014°49'9 0.8
2017-Sep-13 02:59N 56°02' E 015°01'6 7.2
2017-Sep-13 02:13N 55°59' E 015°09'1 6.9
2017-Sep-13 02:01N 55°58' E 015°11'3 6.9
2017-Sep-13 01:30N 55°56' E 015°16'3 6.8
2017-Sep-13 01:01N 55°55' E 015°22'3 6.6
2017-Sep-13 00:30N 55°55' E 015°28'3 6.3
2017-Sep-13 00:01N 55°54' E 015°33'3 6.4
2017-Sep-12 23:30N 55°54' E 015°39'3 6.1
2017-Sep-12 23:01N 55°54' E 015°44'3 6.2
2017-Sep-12 22:31N 55°54' E 015°50'3 6.4
2017-Sep-12 22:01N 55°56' E 015°55'3 6.2
2017-Sep-12 21:31N 55°57' E 016°01'3 6.2
2017-Sep-12 21:01N 55°58' E 016°06'3 6.4
2017-Sep-12 20:31N 55°59' E 016°11'3 6.4
2017-Sep-12 20:01N 56°00' E 016°16'3 6.2
2017-Sep-12 19:30N 56°02' E 016°21'3 6.2
2017-Sep-12 19:01N 56°03' E 016°26'3 6.4
2017-Sep-12 18:31N 56°04' E 016°31'3 6.5
2017-Sep-12 18:00N 56°06' E 016°37'299 7.0
2017-Sep-10 23:15N 59°37' E 023°13'2 7.7
2017-Sep-10 22:56N 59°38' E 023°18'3 7.4
2017-Sep-10 22:29N 59°38' E 023°24'3 7.1
2017-Sep-10 22:00N 59°39' E 023°31'8 7.3
2017-Sep-10 20:56N 59°41' E 023°46'17 7.8
2017-Sep-10 18:45N 59°46' E 024°18'2 7.8
2017-Sep-10 18:30N 59°46' E 024°22'4 7.6
2017-Sep-10 18:00N 59°47' E 024°29'4 7.6
2017-Sep-10 17:30N 59°48' E 024°36'4 7.8
2017-Sep-10 17:00N 59°49' E 024°44'4 7.9
2017-Sep-10 16:30N 59°50' E 024°52'4 8.0
2017-Sep-10 16:00N 59°51' E 024°60'37 8.0
2017-Sep-10 11:22N 59°59' E 026°12'3 7.7
2017-Sep-10 11:00N 59°60' E 026°17'4 7.4
2017-Sep-10 10:30N 60°00' E 026°25'4 7.3
2017-Sep-10 10:00N 60°01' E 026°32'4 7.5
2017-Sep-10 09:30N 60°01' E 026°39'4 7.6
2017-Sep-10 09:00N 60°01' E 026°47'4 7.7
2017-Sep-10 08:30N 60°00' E 026°54'4 7.5
2017-Sep-10 08:00N 59°59' E 027°02'3 6.9
2017-Sep-10 07:30N 60°01' E 027°08'4 7.0
2017-Sep-10 07:00N 60°03' E 027°14'4 7.0
2017-Sep-10 06:30N 60°05' E 027°20'3 6.9
2017-Sep-10 06:00N 60°07' E 027°26'4 7.1
2017-Sep-10 05:30N 60°08' E 027°32'4 7.3
2017-Sep-10 05:00N 60°10' E 027°38'4 7.3
2017-Sep-10 04:30N 60°12' E 027°45'4 7.6
2017-Sep-10 04:00N 60°12' E 027°52'4 8.1
2017-Sep-10 03:30N 60°10' E 027°60'4 7.9
2017-Sep-10 03:00N 60°09' E 028°08'4 8.1
2017-Sep-10 02:30N 60°08' E 028°15'4 7.9
2017-Sep-10 02:00N 60°06' E 028°22'4 7.9
2017-Sep-10 01:30N 60°04' E 028°29'4 7.7
2017-Sep-10 01:01N 60°03' E 028°36'4 8.0
2017-Sep-10 00:30N 60°03' E 028°44'4 8.1
2017-Sep-10 00:00N 60°03' E 028°53'4 8.0
2017-Sep-09 23:30N 60°03' E 029°00'5 7.9
2017-Sep-09 22:56N 60°02' E 029°09'5 8.1
2017-Sep-09 22:22N 60°02' E 029°19'11 7.7
2017-Sep-09 20:59N 59°60' E 029°40'4 8.0
2017-Sep-09 20:28N 59°58' E 029°47'4 8.0
2017-Sep-09 20:00N 59°57' E 029°54'4 7.7
2017-Sep-09 19:31N 59°55' E 030°01'4 7.5
2017-Sep-09 19:01N 59°54' E 030°08'3 5.4
2017-Sep-09 18:31N 59°54' E 030°13'1 1.4
2017-Sep-09 18:00N 59°55' E 030°14'0 0.1
2017-Sep-09 17:30N 59°55' E 030°14'0 0.0
2017-Sep-09 17:00N 59°55' E 030°14'0 0.0
2017-Sep-09 16:31N 59°55' E 030°14'0 0.0
2017-Sep-09 16:01N 59°55' E 030°14'0 0.0
2017-Sep-09 15:30N 59°55' E 030°14'0 0.0
2017-Sep-09 15:00N 59°55' E 030°14'0 0.0
2017-Sep-09 14:30N 59°55' E 030°14'0 0.0
2017-Sep-09 14:00N 59°55' E 030°14'0 0.0
2017-Sep-09 13:30N 59°55' E 030°14'0 0.0
2017-Sep-09 13:01N 59°55' E 030°14'0 0.0
2017-Sep-09 12:30N 59°55' E 030°14'0 0.0
2017-Sep-09 12:00N 59°55' E 030°14'0 0.0
2017-Sep-09 11:30N 59°55' E 030°14'0 0.0
2017-Sep-09 11:00N 59°55' E 030°14'0 0.0
2017-Sep-09 10:30N 59°55' E 030°14'0 0.0
2017-Sep-09 10:00N 59°55' E 030°14'0 0.0
2017-Sep-09 09:30N 59°55' E 030°14'0 0.0
2017-Sep-09 09:00N 59°55' E 030°14'0 0.0
2017-Sep-09 08:30N 59°55' E 030°14'0 0.0
2017-Sep-09 08:00N 59°55' E 030°14'0 0.0
2017-Sep-09 07:30N 59°55' E 030°14'0 0.0
2017-Sep-09 07:00N 59°55' E 030°14'0 0.0
2017-Sep-09 06:30N 59°55' E 030°14'0 0.0
2017-Sep-09 06:00N 59°55' E 030°14'0 0.0
2017-Sep-09 05:30N 59°55' E 030°14'0 0.0
2017-Sep-09 05:00N 59°55' E 030°14'0 0.0
2017-Sep-09 04:30N 59°55' E 030°14'0 0.0
2017-Sep-09 04:00N 59°55' E 030°14'0 0.0
2017-Sep-09 03:30N 59°55' E 030°14'0 0.0
2017-Sep-09 03:00N 59°55' E 030°14'0 0.0
2017-Sep-09 02:30N 59°55' E 030°14'0 0.0
2017-Sep-09 02:00N 59°55' E 030°14'0 0.1
2017-Sep-09 01:30N 59°55' E 030°14'2 3.3
2017-Sep-09 01:00N 59°56' E 030°16'4 8.1
2017-Sep-09 00:31N 59°57' E 030°24'4 8.6
2017-Sep-09 00:00N 59°53' E 030°27'4 5.7
2017-Sep-08 23:20N 59°50' E 030°31'0 0.0
2017-Sep-08 22:56N 59°50' E 030°31'0 0.0
2017-Sep-08 22:14N 59°50' E 030°31'0 0.0
2017-Sep-08 21:56N 59°50' E 030°31'0 0.0
2017-Sep-08 21:17N 59°50' E 030°31'0 0.0
2017-Sep-08 20:59N 59°50' E 030°31'0 0.0
2017-Sep-08 20:20N 59°50' E 030°31'0 0.0
2017-Sep-08 19:59N 59°50' E 030°31'0 0.0
2017-Sep-08 19:20N 59°50' E 030°31'0 0.0
2017-Sep-08 18:53N 59°50' E 030°31'0 0.0
2017-Sep-08 18:29N 59°50' E 030°31'0 0.0
2017-Sep-08 17:59N 59°50' E 030°31'0 0.0
2017-Sep-08 17:26N 59°50' E 030°31'0 0.0
2017-Sep-08 16:56N 59°50' E 030°31'0 0.0
2017-Sep-08 16:29N 59°50' E 030°31'0 0.0
2017-Sep-08 15:56N 59°50' E 030°31'0 0.0
2017-Sep-08 15:26N 59°50' E 030°31'0 0.0
2017-Sep-08 14:56N 59°50' E 030°31'0 0.0
2017-Sep-08 14:26N 59°50' E 030°31'0 0.0
2017-Sep-08 13:59N 59°50' E 030°31'0 0.0
2017-Sep-08 13:20N 59°50' E 030°31'0 0.0
2017-Sep-08 12:56N 59°50' E 030°31'0 0.0
2017-Sep-08 11:32N 59°50' E 030°31'0 0.0
2017-Sep-08 11:26N 59°50' E 030°31'0 0.0
2017-Sep-08 10:56N 59°50' E 030°31'0 0.0
2017-Sep-08 10:26N 59°50' E 030°31'0 0.0
2017-Sep-08 09:44N 59°50' E 030°31'0 0.0
2017-Sep-08 09:26N 59°50' E 030°31'0 0.0
2017-Sep-08 08:02N 59°50' E 030°31'0 0.0
2017-Sep-08 07:56N 59°50' E 030°31'  

Dump ship's entire track history